Aransas Pass — WDF5061 — position and weather

sailwx.info

Track history (hours):
 
Tides and Currents Weather Stations Pressure Air Temp Water Temp Dewpoint Dewpoint Depression Visibility Wind Speed Wind Dir Waves Ship Positions

Aransas Pass

Owner: Higman Barge Lines, Inc., Orange, TX. More information available from US FCC via Universal Licensing System and Coast Guard Vessel Documentation Center.

Last reported at 2018-May-18 10:35 UTC. Time now 2018-May-26 17:51 UTC.
Position N 29°47' W 095°04'.
Warning: this ship's position is 8 days out of date.

Length 115 m.

Type: Towing. MMSI: 367458930.

Date/timePositionNaut miles runAvg speedWind from/ knotsBaromVisibWave heightAir tempDewpointWater temp
2018-May-18 10:35N 29°47' W 095°04'0 0.0
2018-May-18 10:29N 29°47' W 095°04'0 0.0
2018-May-18 10:00N 29°47' W 095°04'0 0.0
2018-May-18 09:29N 29°47' W 095°04'0 0.0
2018-May-18 09:00N 29°47' W 095°04'0 0.0
2018-May-18 08:30N 29°47' W 095°04'0 0.0
2018-May-18 07:59N 29°47' W 095°04'0 0.0
2018-May-18 07:31N 29°47' W 095°04'0 0.8
2018-May-18 06:57N 29°47' W 095°04'1 3.1
2018-May-18 06:31N 29°46' W 095°05'3 6.0
2018-May-18 06:00N 29°44' W 095°08'3 5.1
2018-May-18 05:22N 29°44' W 095°12'0 0.1
2018-May-18 05:00N 29°44' W 095°12'0 0.4
2018-May-18 04:26N 29°44' W 095°12'0 0.7
2018-May-18 03:59N 29°44' W 095°12'0 0.2
2018-May-18 03:28N 29°44' W 095°12'0 0.0
2018-May-18 02:57N 29°44' W 095°12'0 0.0
2018-May-17 10:13N 29°44' W 095°12'0 0.0
2018-May-17 08:23N 29°44' W 095°12'2 0.4
2018-May-17 04:04N 29°45' W 095°10'0 0.0
2018-May-17 03:58N 29°45' W 095°10'0 0.0
2018-May-17 03:30N 29°45' W 095°10'0 0.0
2018-May-16 12:56N 29°45' W 095°10'0 0.0
2018-May-16 12:24N 29°45' W 095°10'0 0.1
2018-May-16 11:58N 29°45' W 095°10'0 0.0
2018-May-16 11:31N 29°45' W 095°10'0 0.0
2018-May-16 11:00N 29°45' W 095°10'0 0.0
2018-May-16 09:35N 29°45' W 095°10'0 0.0
2018-May-16 09:10N 29°45' W 095°10'0 0.0
2018-May-16 08:48N 29°45' W 095°10'0 0.0
2018-May-16 08:30N 29°45' W 095°10'0 0.0
2018-May-16 08:00N 29°45' W 095°10'0 0.0
2018-May-16 06:42N 29°45' W 095°10'0 0.0
2018-May-16 04:27N 29°45' W 095°10'0 0.0
2018-May-16 03:58N 29°45' W 095°10'0 0.0
2018-May-15 12:37N 29°45' W 095°10'0 0.0
2018-May-15 12:28N 29°45' W 095°10'0 0.0
2018-May-15 11:58N 29°45' W 095°10'0 0.0
2018-May-15 11:28N 29°45' W 095°10'0 0.0
2018-May-15 10:26N 29°45' W 095°10'0 0.0
2018-May-15 09:58N 29°45' W 095°10'0 0.0
2018-May-15 09:23N 29°45' W 095°10'0 0.0
2018-May-15 08:17N 29°45' W 095°10'0 0.0
2018-May-15 05:47N 29°45' W 095°10'0 0.0
2018-May-15 05:23N 29°45' W 095°10'0 0.0
2018-May-15 04:53N 29°45' W 095°10'0 0.0
2018-May-15 03:10N 29°45' W 095°10'0 0.0
2018-May-15 02:58N 29°45' W 095°10'0 0.0
2018-May-15 02:16N 29°45' W 095°10'0 0.0
2018-May-15 01:54N 29°45' W 095°10'0 0.0
2018-May-15 01:30N 29°45' W 095°10'  
2018-May-10 05:10N 29°43' W 095°13'0 0.0
2018-May-10 04:55N 29°43' W 095°13'0 0.0
2018-May-10 02:08N 29°43' W 095°13'1 3.8
2018-May-10 01:49N 29°44' W 095°12'8 0.5
2018-May-09 08:21N 29°47' W 095°04'0 0.0
2018-May-09 05:39N 29°47' W 095°04'0 0.0
2018-May-09 05:30N 29°47' W 095°04'0 0.0
2018-May-09 04:58N 29°47' W 095°04'0 0.0
2018-May-09 04:30N 29°47' W 095°04'0 0.0
2018-May-09 04:00N 29°47' W 095°04'0 0.0
2018-May-09 03:28N 29°47' W 095°04'0 0.0
2018-May-09 02:57N 29°47' W 095°04'0 0.0
2018-May-09 02:29N 29°47' W 095°04'0 0.0
2018-May-09 01:52N 29°47' W 095°04'0 0.0
2018-May-09 01:30N 29°47' W 095°04'0 0.0
2018-May-09 00:59N 29°47' W 095°04'1 0.1
2018-May-08 14:11N 29°47' W 095°06'0 0.0
2018-May-08 13:31N 29°47' W 095°06'0 0.0
2018-May-08 13:29N 29°47' W 095°06'0 0.0
2018-May-08 12:52N 29°47' W 095°06'0 0.0
2018-May-08 12:28N 29°47' W 095°06'0 0.0
2018-May-08 12:00N 29°47' W 095°06'0 0.0
2018-May-08 11:30N 29°47' W 095°06'0 0.0
2018-May-08 10:55N 29°47' W 095°06'  
Track history (hours):
 
Tides and Currents Weather Stations Pressure Air Temp Water Temp Dewpoint Dewpoint Depression Visibility Wind Speed Wind Dir Waves Ship Positions

Aransas Pass

Owner: Higman Barge Lines, Inc., Orange, TX. More information available from US FCC via Universal Licensing System and Coast Guard Vessel Documentation Center.

Last reported at 2018-May-18 10:35 UTC. Time now 2018-May-26 17:51 UTC.
Position N 29°47' W 095°04'.
Warning: this ship's position is 8 days out of date.

Length 115 m.

Type: Towing. MMSI: 367458930.

Date/timePositionNaut miles runAvg speedWind from/ knotsBaromVisibWave heightAir tempDewpointWater temp
2018-May-18 10:35N 29°47' W 095°04'0 0.0
2018-May-18 10:29N 29°47' W 095°04'0 0.0
2018-May-18 10:00N 29°47' W 095°04'0 0.0
2018-May-18 09:29N 29°47' W 095°04'0 0.0
2018-May-18 09:00N 29°47' W 095°04'0 0.0
2018-May-18 08:30N 29°47' W 095°04'0 0.0
2018-May-18 07:59N 29°47' W 095°04'0 0.0
2018-May-18 07:31N 29°47' W 095°04'0 0.8
2018-May-18 06:57N 29°47' W 095°04'1 3.1
2018-May-18 06:31N 29°46' W 095°05'3 6.0
2018-May-18 06:00N 29°44' W 095°08'3 5.1
2018-May-18 05:22N 29°44' W 095°12'0 0.1
2018-May-18 05:00N 29°44' W 095°12'0 0.4
2018-May-18 04:26N 29°44' W 095°12'0 0.7
2018-May-18 03:59N 29°44' W 095°12'0 0.2
2018-May-18 03:28N 29°44' W 095°12'0 0.0
2018-May-18 02:57N 29°44' W 095°12'0 0.0
2018-May-17 10:13N 29°44' W 095°12'0 0.0
2018-May-17 08:23N 29°44' W 095°12'2 0.4
2018-May-17 04:04N 29°45' W 095°10'0 0.0
2018-May-17 03:58N 29°45' W 095°10'0 0.0
2018-May-17 03:30N 29°45' W 095°10'0 0.0
2018-May-16 12:56N 29°45' W 095°10'0 0.0
2018-May-16 12:24N 29°45' W 095°10'0 0.1
2018-May-16 11:58N 29°45' W 095°10'0 0.0
2018-May-16 11:31N 29°45' W 095°10'0 0.0
2018-May-16 11:00N 29°45' W 095°10'0 0.0
2018-May-16 09:35N 29°45' W 095°10'0 0.0
2018-May-16 09:10N 29°45' W 095°10'0 0.0
2018-May-16 08:48N 29°45' W 095°10'0 0.0
2018-May-16 08:30N 29°45' W 095°10'0 0.0
2018-May-16 08:00N 29°45' W 095°10'0 0.0
2018-May-16 06:42N 29°45' W 095°10'0 0.0
2018-May-16 04:27N 29°45' W 095°10'0 0.0
2018-May-16 03:58N 29°45' W 095°10'0 0.0
2018-May-15 12:37N 29°45' W 095°10'0 0.0
2018-May-15 12:28N 29°45' W 095°10'0 0.0
2018-May-15 11:58N 29°45' W 095°10'0 0.0
2018-May-15 11:28N 29°45' W 095°10'0 0.0
2018-May-15 10:26N 29°45' W 095°10'0 0.0
2018-May-15 09:58N 29°45' W 095°10'0 0.0
2018-May-15 09:23N 29°45' W 095°10'0 0.0
2018-May-15 08:17N 29°45' W 095°10'0 0.0
2018-May-15 05:47N 29°45' W 095°10'0 0.0
2018-May-15 05:23N 29°45' W 095°10'0 0.0
2018-May-15 04:53N 29°45' W 095°10'0 0.0
2018-May-15 03:10N 29°45' W 095°10'0 0.0
2018-May-15 02:58N 29°45' W 095°10'0 0.0
2018-May-15 02:16N 29°45' W 095°10'0 0.0
2018-May-15 01:54N 29°45' W 095°10'0 0.0
2018-May-15 01:30N 29°45' W 095°10'  
2018-May-10 05:10N 29°43' W 095°13'0 0.0
2018-May-10 04:55N 29°43' W 095°13'0 0.0
2018-May-10 02:08N 29°43' W 095°13'1 3.8
2018-May-10 01:49N 29°44' W 095°12'8 0.5
2018-May-09 08:21N 29°47' W 095°04'0 0.0
2018-May-09 05:39N 29°47' W 095°04'0 0.0
2018-May-09 05:30N 29°47' W 095°04'0 0.0
2018-May-09 04:58N 29°47' W 095°04'0 0.0
2018-May-09 04:30N 29°47' W 095°04'0 0.0
2018-May-09 04:00N 29°47' W 095°04'0 0.0
2018-May-09 03:28N 29°47' W 095°04'0 0.0
2018-May-09 02:57N 29°47' W 095°04'0 0.0
2018-May-09 02:29N 29°47' W 095°04'0 0.0
2018-May-09 01:52N 29°47' W 095°04'0 0.0
2018-May-09 01:30N 29°47' W 095°04'0 0.0
2018-May-09 00:59N 29°47' W 095°04'1 0.1
2018-May-08 14:11N 29°47' W 095°06'0 0.0
2018-May-08 13:31N 29°47' W 095°06'0 0.0
2018-May-08 13:29N 29°47' W 095°06'0 0.0
2018-May-08 12:52N 29°47' W 095°06'0 0.0
2018-May-08 12:28N 29°47' W 095°06'0 0.0
2018-May-08 12:00N 29°47' W 095°06'0 0.0
2018-May-08 11:30N 29°47' W 095°06'0 0.0
2018-May-08 10:55N 29°47' W 095°06'  

Dump ship's entire track history